createdAt,value
2019-04-29T00:02:42.504Z,7.50
2019-04-29T00:05:34.253Z,7.50
2019-04-29T00:08:26.953Z,7.40
2019-04-29T00:11:18.208Z,7.30
2019-04-29T00:14:10.283Z,7.30
2019-04-29T00:17:12.624Z,7.20
2019-04-29T00:20:26.000Z,7.10
2019-04-29T00:23:17.691Z,7.00
2019-04-29T00:26:09.027Z,7.00
2019-04-29T00:29:00.643Z,7.00
2019-04-29T00:31:52.401Z,7.00
2019-04-29T00:34:43.933Z,7.10
2019-04-29T00:38:03.940Z,7.10
2019-04-29T00:41:17.519Z,7.20
2019-04-29T00:44:11.120Z,7.30
2019-04-29T00:47:03.205Z,7.40
2019-04-29T00:49:55.760Z,7.40
2019-04-29T00:52:47.087Z,7.50
2019-04-29T00:55:38.562Z,7.50
2019-04-29T00:58:30.231Z,7.50
2019-04-29T01:01:25.336Z,7.40
2019-04-29T01:04:16.733Z,7.40
2019-04-29T01:07:08.307Z,7.30
2019-04-29T01:09:59.930Z,7.30
2019-04-29T01:12:51.253Z,7.20
2019-04-29T01:15:42.616Z,7.10
2019-04-29T01:18:34.079Z,7.00
2019-04-29T01:21:25.514Z,7.00
2019-04-29T01:24:17.034Z,6.90
2019-04-29T01:27:14.211Z,6.80
2019-04-29T01:30:07.785Z,6.70
2019-04-29T01:32:59.345Z,6.70
2019-04-29T01:35:52.672Z,6.60
2019-04-29T01:38:43.788Z,6.50
2019-04-29T01:41:42.399Z,6.50
2019-04-29T01:44:35.815Z,6.40
2019-04-29T01:47:27.462Z,6.30
2019-04-29T01:50:19.059Z,6.30
2019-04-29T01:53:10.593Z,6.30
2019-04-29T01:56:01.915Z,6.40
2019-04-29T01:58:53.284Z,6.40
2019-04-29T02:01:44.680Z,6.50
2019-04-29T02:04:36.058Z,6.50
2019-04-29T02:07:27.377Z,6.40
2019-04-29T02:10:25.771Z,6.40
2019-04-29T02:13:17.725Z,6.30
2019-04-29T02:16:09.260Z,6.30
2019-04-29T02:19:00.547Z,6.20
2019-04-29T02:22:09.731Z,6.20
2019-04-29T02:25:10.925Z,6.20
2019-04-29T02:28:02.436Z,6.10
2019-04-29T02:30:54.501Z,6.10
2019-04-29T02:33:46.721Z,6.10
2019-04-29T02:36:38.764Z,6.00
2019-04-29T02:39:44.922Z,6.00
2019-04-29T02:42:43.123Z,6.00
2019-04-29T02:45:35.681Z,5.90
2019-04-29T02:48:31.654Z,5.80
2019-04-29T02:51:37.879Z,5.80
2019-04-29T02:54:30.345Z,5.70
2019-04-29T02:57:33.376Z,5.60
2019-04-29T03:00:44.626Z,5.50
2019-04-29T03:03:52.868Z,5.50
2019-04-29T03:06:44.240Z,5.40
2019-04-29T03:09:45.552Z,5.40
2019-04-29T03:12:37.775Z,5.40
2019-04-29T03:15:35.482Z,5.40
2019-04-29T03:18:29.516Z,5.30
2019-04-29T03:21:38.168Z,5.20
2019-04-29T03:24:29.681Z,5.10
2019-04-29T03:27:21.439Z,5.10
2019-04-29T03:30:13.234Z,5.00
2019-04-29T03:33:05.460Z,5.00
2019-04-29T03:35:57.912Z,4.90
2019-04-29T03:38:49.424Z,5.00
2019-04-29T03:41:40.952Z,4.90
2019-04-29T03:44:33.372Z,4.90
2019-04-29T03:47:25.651Z,4.80
2019-04-29T03:50:17.151Z,4.80
2019-04-29T03:53:08.700Z,4.80
2019-04-29T03:56:00.349Z,4.80
2019-04-29T03:58:53.449Z,4.80
2019-04-29T04:02:10.252Z,4.70
2019-04-29T04:05:19.728Z,4.70
2019-04-29T04:08:15.294Z,4.70
2019-04-29T04:11:06.943Z,4.60
2019-04-29T04:13:58.558Z,4.60
2019-04-29T04:17:12.300Z,4.50
2019-04-29T04:20:04.755Z,4.50
2019-04-29T04:22:56.141Z,4.50
2019-04-29T04:25:47.434Z,4.50
2019-04-29T04:28:39.001Z,4.50
2019-04-29T04:31:31.298Z,4.40
2019-04-29T04:34:22.827Z,4.30
2019-04-29T04:37:14.253Z,4.30
2019-04-29T04:40:06.275Z,4.20
2019-04-29T04:42:57.813Z,4.10
2019-04-29T04:45:49.149Z,4.20
2019-04-29T04:48:40.495Z,4.20
2019-04-29T04:51:31.882Z,4.20
2019-04-29T04:54:23.403Z,4.20
2019-04-29T04:57:14.992Z,4.20
2019-04-29T05:00:08.854Z,4.30
2019-04-29T05:03:00.158Z,4.40
2019-04-29T05:05:51.409Z,4.50
2019-04-29T05:08:43.022Z,4.60
2019-04-29T05:11:34.613Z,4.70
2019-04-29T05:14:26.919Z,4.80
2019-04-29T05:17:19.046Z,5.00
2019-04-29T05:20:11.666Z,5.10
2019-04-29T05:23:02.892Z,5.30
2019-04-29T05:25:54.261Z,5.50
2019-04-29T05:28:45.593Z,5.60
2019-04-29T05:31:37.380Z,5.80
2019-04-29T05:34:30.297Z,6.10
2019-04-29T05:37:39.738Z,6.30
2019-04-29T05:40:39.136Z,6.50
2019-04-29T05:43:40.533Z,6.80
2019-04-29T05:46:40.216Z,7.00
2019-04-29T05:49:41.666Z,7.30
2019-04-29T05:52:44.394Z,7.50
2019-04-29T05:55:35.880Z,7.80
2019-04-29T05:58:27.361Z,8.00
2019-04-29T06:01:22.621Z,8.10
2019-04-29T06:04:16.366Z,8.20
2019-04-29T06:07:07.449Z,8.40
2019-04-29T06:09:58.734Z,8.50
2019-04-29T06:12:50.356Z,8.80
2019-04-29T06:15:42.018Z,9.00
2019-04-29T06:18:33.599Z,9.20
2019-04-29T06:21:25.179Z,9.40
2019-04-29T06:24:16.709Z,9.50
2019-04-29T06:27:08.476Z,9.70
2019-04-29T06:30:03.247Z,9.90
2019-04-29T06:32:53.743Z,10.30
2019-04-29T06:35:47.373Z,10.70
2019-04-29T06:38:38.408Z,11.20
2019-04-29T06:41:29.695Z,11.90
2019-04-29T06:44:20.929Z,12.80
2019-04-29T06:47:12.263Z,13.40
2019-04-29T06:50:04.361Z,14.20
2019-04-29T06:52:55.811Z,15.00
2019-04-29T06:55:47.155Z,15.90
2019-04-29T06:58:38.607Z,16.70
2019-04-29T07:01:33.066Z,17.10
2019-04-29T07:04:23.373Z,17.40
2019-04-29T07:07:14.622Z,18.40
2019-04-29T07:10:06.689Z,18.60
2019-04-29T07:12:58.202Z,18.80
2019-04-29T07:15:49.475Z,19.60
2019-04-29T07:18:48.347Z,20.40
2019-04-29T07:21:34.111Z,21.00
2019-04-29T07:24:25.763Z,21.80
2019-04-29T07:27:17.280Z,22.10
2019-04-29T07:30:10.198Z,22.50
2019-04-29T07:33:05.438Z,22.90
2019-04-29T07:35:55.437Z,23.10
2019-04-29T07:38:51.294Z,23.20
2019-04-29T07:41:40.298Z,23.00
2019-04-29T07:44:43.713Z,23.00
2019-04-29T07:47:31.031Z,23.30
2019-04-29T07:50:26.635Z,23.70
2019-04-29T07:53:16.116Z,23.70
2019-04-29T07:56:08.216Z,23.30
2019-04-29T07:59:03.091Z,23.60
2019-04-29T08:01:55.564Z,23.80
2019-04-29T08:04:45.751Z,23.50
2019-04-29T08:07:38.575Z,23.40
2019-04-29T08:10:31.206Z,23.60
2019-04-29T08:13:23.695Z,24.10
2019-04-29T08:16:17.059Z,23.90
2019-04-29T08:19:08.413Z,23.30
2019-04-29T08:21:59.785Z,22.20
2019-04-29T08:24:52.221Z,21.60
2019-04-29T08:27:44.362Z,21.80
2019-04-29T08:30:37.186Z,21.90
2019-04-29T08:33:28.778Z,21.90
2019-04-29T08:36:20.070Z,23.20
2019-04-29T08:39:11.743Z,24.10
2019-04-29T08:42:09.036Z,25.30
2019-04-29T08:45:18.142Z,26.00
2019-04-29T08:48:09.885Z,25.90
2019-04-29T08:51:01.774Z,26.10
2019-04-29T08:53:53.601Z,26.30
2019-04-29T08:57:01.665Z,25.60
2019-04-29T08:59:37.943Z,25.30
2019-04-29T09:02:35.033Z,25.70
2019-04-29T09:05:22.432Z,25.50
2019-04-29T09:08:14.131Z,25.00
2019-04-29T09:11:08.275Z,24.60
2019-04-29T09:13:59.424Z,24.50
2019-04-29T09:16:50.751Z,24.20
2019-04-29T09:19:42.414Z,24.20
2019-04-29T09:22:35.507Z,24.60
2019-04-29T09:25:45.817Z,24.40
2019-04-29T09:28:37.444Z,23.60
2019-04-29T09:31:29.118Z,23.50
2019-04-29T09:34:24.691Z,23.50
2019-04-29T09:37:13.900Z,22.80
2019-04-29T09:40:05.924Z,22.30
2019-04-29T09:43:15.507Z,22.20
2019-04-29T09:46:18.274Z,22.20
2019-04-29T09:49:08.246Z,22.10
2019-04-29T09:51:59.775Z,20.40
2019-04-29T09:54:51.218Z,19.70
2019-04-29T09:57:42.612Z,19.80
2019-04-29T10:00:50.634Z,20.00
2019-04-29T10:04:13.263Z,20.10
2019-04-29T10:07:07.375Z,20.00
2019-04-29T10:10:02.363Z,19.50
2019-04-29T10:12:54.128Z,19.40
2019-04-29T10:16:03.192Z,20.20
2019-04-29T10:19:16.554Z,20.40
2019-04-29T10:22:08.051Z,20.00
2019-04-29T10:24:59.591Z,19.40
2019-04-29T10:27:51.655Z,19.80
2019-04-29T10:30:43.683Z,20.40
2019-04-29T10:33:35.198Z,21.20
2019-04-29T10:36:26.796Z,22.10
2019-04-29T10:39:55.355Z,22.50
2019-04-29T10:43:04.567Z,23.10
2019-04-29T10:46:13.874Z,23.10
2019-04-29T10:49:11.235Z,22.20
2019-04-29T10:52:04.562Z,20.80
2019-04-29T10:54:56.759Z,20.60
2019-04-29T10:57:49.690Z,21.10
2019-04-29T11:02:01.317Z,21.30
2019-04-29T11:04:53.192Z,20.90
2019-04-29T11:07:45.753Z,20.40
2019-04-29T11:10:38.680Z,21.10
2019-04-29T11:13:30.134Z,22.10
2019-04-29T11:16:23.042Z,22.40
2019-04-29T11:19:15.863Z,23.30
2019-04-29T11:22:08.009Z,23.90
2019-04-29T11:25:18.380Z,23.50
2019-04-29T11:28:12.034Z,22.60
2019-04-29T11:31:03.142Z,21.90
2019-04-29T11:34:01.841Z,21.30
2019-04-29T11:36:53.170Z,20.80
2019-04-29T11:39:46.287Z,20.10
2019-04-29T11:42:41.822Z,19.40
2019-04-29T11:45:33.796Z,19.10
2019-04-29T11:48:24.415Z,18.80
2019-04-29T11:51:48.623Z,18.80
2019-04-29T11:54:31.299Z,20.10
2019-04-29T11:57:40.993Z,21.80
2019-04-29T12:00:52.083Z,22.90
2019-04-29T12:03:45.013Z,24.00
2019-04-29T12:06:36.493Z,25.00
2019-04-29T12:09:30.663Z,24.20
2019-04-29T12:12:23.678Z,25.00
2019-04-29T12:15:45.082Z,25.50
2019-04-29T12:18:46.746Z,24.80
2019-04-29T12:21:39.223Z,23.80
2019-04-29T12:24:31.531Z,23.00
2019-04-29T12:27:24.015Z,22.10
2019-04-29T12:30:18.445Z,21.40
2019-04-29T12:33:22.600Z,20.60
2019-04-29T12:36:16.535Z,19.90
2019-04-29T12:39:44.971Z,19.60
2019-04-29T12:43:04.819Z,19.30
2019-04-29T12:46:06.632Z,19.00
2019-04-29T12:48:58.170Z,18.80
2019-04-29T12:51:49.630Z,18.70
2019-04-29T12:54:42.117Z,18.50
2019-04-29T12:57:34.048Z,18.40
2019-04-29T13:00:27.944Z,18.40
2019-04-29T13:03:39.869Z,19.30
2019-04-29T13:06:57.013Z,21.10
2019-04-29T13:09:49.078Z,21.60
2019-04-29T13:12:44.478Z,21.80
2019-04-29T13:15:54.490Z,21.70
2019-04-29T13:18:53.887Z,21.30
2019-04-29T13:21:44.326Z,20.80
2019-04-29T13:24:38.598Z,20.40
2019-04-29T13:27:29.547Z,20.00
2019-04-29T13:30:22.984Z,19.80
2019-04-29T13:33:16.516Z,19.50
2019-04-29T13:36:08.420Z,19.30
2019-04-29T13:39:00.239Z,19.20
2019-04-29T13:41:57.709Z,19.00
2019-04-29T13:45:04.545Z,19.00
2019-04-29T13:48:07.662Z,18.90
2019-04-29T13:51:04.792Z,18.80
2019-04-29T13:53:59.104Z,18.80
2019-04-29T13:56:56.087Z,18.70
2019-04-29T13:59:52.566Z,18.70
2019-04-29T14:02:59.275Z,18.70
2019-04-29T14:05:48.442Z,18.70
2019-04-29T14:08:39.726Z,18.70
2019-04-29T14:11:31.298Z,18.80
2019-04-29T14:14:24.604Z,18.90
2019-04-29T14:17:26.002Z,18.90
2019-04-29T14:20:10.602Z,19.30
2019-04-29T14:23:02.705Z,19.50
2019-04-29T14:25:54.891Z,19.80
2019-04-29T14:28:47.820Z,20.10
2019-04-29T14:31:39.390Z,20.30
2019-04-29T14:34:52.749Z,20.90
2019-04-29T14:37:54.768Z,21.20
2019-04-29T14:40:38.971Z,21.70
2019-04-29T14:43:55.047Z,22.10
2019-04-29T14:47:14.476Z,22.50
2019-04-29T14:50:10.808Z,22.60
2019-04-29T14:53:00.022Z,22.60
2019-04-29T14:55:51.596Z,22.50
2019-04-29T14:58:43.720Z,22.80
2019-04-29T15:01:43.669Z,22.80
2019-04-29T15:04:40.376Z,22.30
2019-04-29T15:07:36.243Z,21.50
2019-04-29T15:10:30.955Z,20.70
2019-04-29T15:13:23.519Z,20.20
2019-04-29T15:16:22.077Z,19.70
2019-04-29T15:19:55.351Z,19.40
2019-04-29T15:22:45.119Z,19.20
2019-04-29T15:25:36.540Z,19.40
2019-04-29T15:28:28.052Z,19.30
2019-04-29T15:31:24.003Z,19.10
2019-04-29T15:34:15.847Z,19.10
2019-04-29T15:37:07.590Z,19.20
2019-04-29T15:39:59.553Z,19.30
2019-04-29T15:42:53.516Z,19.20
2019-04-29T15:45:44.943Z,19.00
2019-04-29T15:48:36.673Z,19.00
2019-04-29T15:51:29.024Z,19.10
2019-04-29T15:54:20.733Z,19.30
2019-04-29T15:57:15.403Z,19.50
2019-04-29T16:00:20.565Z,19.70
2019-04-29T16:03:01.362Z,19.80
2019-04-29T16:06:19.772Z,19.90
2019-04-29T16:09:00.345Z,20.00
2019-04-29T16:12:13.958Z,19.80
2019-04-29T16:15:00.618Z,19.70
2019-04-29T16:17:52.332Z,19.80
2019-04-29T16:20:43.758Z,19.70
2019-04-29T16:23:38.603Z,19.70
2019-04-29T16:29:21.652Z,19.60
2019-04-29T16:32:19.292Z,19.60
2019-04-29T16:35:11.522Z,19.50
2019-04-29T16:38:05.776Z,19.40
2019-04-29T16:41:04.629Z,19.30
2019-04-29T16:43:56.533Z,19.10
2019-04-29T16:46:48.568Z,18.90
2019-04-29T16:49:40.153Z,18.50
2019-04-29T16:52:31.740Z,17.80
2019-04-29T16:55:23.268Z,17.40
2019-04-29T16:58:17.913Z,17.20
2019-04-29T17:01:08.165Z,16.90
2019-04-29T17:04:05.269Z,16.70
2019-04-29T17:07:11.640Z,16.50
2019-04-29T17:10:06.787Z,16.40
2019-04-29T17:12:58.176Z,16.30
2019-04-29T17:15:52.030Z,16.20
2019-04-29T17:18:44.659Z,16.10
2019-04-29T17:21:36.523Z,15.90
2019-04-29T17:24:28.307Z,15.70
2019-04-29T17:27:45.335Z,15.50
2019-04-29T17:30:57.534Z,15.40
2019-04-29T17:33:56.501Z,15.20
2019-04-29T17:35:18.696Z,19.80
2019-04-29T17:36:48.426Z,15.00
2019-04-29T17:39:40.337Z,14.80
2019-04-29T17:42:33.447Z,14.70
2019-04-29T17:45:32.679Z,14.60
2019-04-29T17:48:40.321Z,14.40
2019-04-29T17:51:33.939Z,14.30
2019-04-29T17:54:31.033Z,14.20
2019-04-29T17:57:54.862Z,14.10
2019-04-29T18:01:08.044Z,13.90
2019-04-29T18:04:15.505Z,13.80
2019-04-29T18:07:22.673Z,13.70
2019-04-29T18:10:24.513Z,13.50
2019-04-29T18:13:18.281Z,13.30
2019-04-29T18:16:17.445Z,13.20
2019-04-29T18:19:12.281Z,13.10
2019-04-29T18:22:35.191Z,13.00
2019-04-29T18:25:40.565Z,12.80
2019-04-29T18:28:32.628Z,12.70
2019-04-29T18:31:26.465Z,12.60
2019-04-29T18:34:17.456Z,12.50
2019-04-29T18:37:08.853Z,12.40
2019-04-29T18:40:02.322Z,12.20
2019-04-29T18:42:55.261Z,12.10
2019-04-29T18:45:55.880Z,12.00
2019-04-29T18:48:40.401Z,12.00
2019-04-29T18:51:31.947Z,11.80
2019-04-29T18:54:25.398Z,11.70
2019-04-29T18:57:27.768Z,11.50
2019-04-29T19:00:12.463Z,11.50
2019-04-29T19:03:02.854Z,11.40
2019-04-29T19:05:57.325Z,11.20
2019-04-29T19:08:48.519Z,11.10
2019-04-29T19:11:40.969Z,11.00
2019-04-29T19:14:34.819Z,10.90
2019-04-29T19:17:30.810Z,10.80
2019-04-29T19:20:20.943Z,10.70
2019-04-29T19:23:16.089Z,10.60
2019-04-29T19:26:05.285Z,10.50
2019-04-29T19:28:56.888Z,10.50
2019-04-29T19:31:49.783Z,10.40
2019-04-29T19:34:43.577Z,10.40
2019-04-29T19:37:37.556Z,10.30
2019-04-29T19:40:31.399Z,10.20
2019-04-29T19:43:23.213Z,10.20
2019-04-29T19:46:22.563Z,10.00
2019-04-29T19:49:10.222Z,10.00
2019-04-29T19:52:01.885Z,9.90
2019-04-29T19:54:53.327Z,9.80
2019-04-29T19:57:51.821Z,9.70
2019-04-29T20:00:41.291Z,9.70
2019-04-29T20:03:41.291Z,9.60
2019-04-29T20:06:31.264Z,9.50
2019-04-29T20:09:27.566Z,9.40
2019-04-29T20:12:17.998Z,9.40
2019-04-29T20:15:10.637Z,9.30
2019-04-29T20:18:13.434Z,9.30
2019-04-29T20:21:20.896Z,9.30
2019-04-29T20:24:03.932Z,9.20
2019-04-29T20:26:55.583Z,9.20
2019-04-29T20:29:47.370Z,9.10
2019-04-29T20:32:39.197Z,9.00
2019-04-29T20:35:30.771Z,9.00
2019-04-29T20:38:22.504Z,8.90
2019-04-29T20:41:19.528Z,8.90
2019-04-29T20:44:09.199Z,8.80
2019-04-29T20:47:16.721Z,8.80
2019-04-29T20:49:54.223Z,8.80
2019-04-29T20:53:01.961Z,8.80
2019-04-29T20:55:51.192Z,8.80
2019-04-29T20:58:46.212Z,8.70
2019-04-29T21:01:43.338Z,8.70
2019-04-29T21:04:39.248Z,8.70
2019-04-29T21:07:25.775Z,8.70
2019-04-29T21:10:18.336Z,8.70
2019-04-29T21:13:25.763Z,8.70
2019-04-29T21:16:22.850Z,8.70
2019-04-29T21:19:15.414Z,8.70
2019-04-29T21:22:07.127Z,8.60
2019-04-29T21:24:58.698Z,8.60
2019-04-29T21:27:52.693Z,8.60
2019-04-29T21:30:45.137Z,8.60
2019-04-29T21:33:36.527Z,8.60
2019-04-29T21:36:55.342Z,8.60
2019-04-29T21:40:07.054Z,8.60
2019-04-29T21:43:13.336Z,8.50
2019-04-29T21:45:59.429Z,8.50
2019-04-29T21:48:51.110Z,8.40
2019-04-29T21:51:46.560Z,8.40
2019-04-29T21:54:35.824Z,8.40
2019-04-29T21:57:27.374Z,8.40
2019-04-29T22:00:24.563Z,8.40
2019-04-29T22:03:15.445Z,8.40
2019-04-29T22:06:07.447Z,8.40
2019-04-29T22:09:01.402Z,8.30
2019-04-29T22:11:55.563Z,8.30
2019-04-29T22:14:52.583Z,8.30
2019-04-29T22:17:40.169Z,8.30
2019-04-29T22:20:35.634Z,8.20
2019-04-29T22:23:25.275Z,8.20
2019-04-29T22:26:23.108Z,8.10
2019-04-29T22:29:10.358Z,8.10
2019-04-29T22:32:01.649Z,8.10
2019-04-29T22:35:00.716Z,8.00
2019-04-29T22:37:46.752Z,8.00
2019-04-29T22:40:40.998Z,8.00
2019-04-29T22:43:45.808Z,8.00
2019-04-29T22:46:40.025Z,8.00
2019-04-29T22:49:30.473Z,8.00
2019-04-29T22:52:25.530Z,8.00
2019-04-29T22:55:15.600Z,8.00
2019-04-29T22:58:09.691Z,7.90
2019-04-29T23:01:02.418Z,7.90
2019-04-29T23:03:55.375Z,7.80
2019-04-29T23:06:48.132Z,7.80
2019-04-29T23:09:41.651Z,7.80
2019-04-29T23:12:32.416Z,7.80
2019-04-29T23:15:25.870Z,7.80
2019-04-29T23:18:24.656Z,7.70
2019-04-29T23:21:37.473Z,7.70
2019-04-29T23:24:52.646Z,7.70
2019-04-29T23:27:44.226Z,7.70
2019-04-29T23:30:35.777Z,7.60
2019-04-29T23:33:27.567Z,7.60
2019-04-29T23:36:19.023Z,7.50
2019-04-29T23:39:10.446Z,7.50
2019-04-29T23:42:04.671Z,7.50
2019-04-29T23:44:57.164Z,7.40
2019-04-29T23:47:50.283Z,7.40
2019-04-29T23:50:42.056Z,7.40
2019-04-29T23:53:35.103Z,7.40
2019-04-29T23:56:29.737Z,7.40
2019-04-29T23:59:26.343Z,7.30
